sensor_id;sensor_type;location;lat;lon;timestamp;pressure;altitude;pressure_sealevel;temperature;humidity
44309;BME280;30022;55.846;37.340;2023-03-15T00:00:20;46602.41;;;-143.51;100.00
44309;BME280;30022;55.846;37.340;2023-03-15T00:02:46;46630.03;;;-143.51;100.00
44309;BME280;30022;55.846;37.340;2023-03-15T00:05:12;46612.28;;;-143.51;100.00
44309;BME280;30022;55.846;37.340;2023-03-15T00:07:37;46594.50;;;-143.51;100.00
44309;BME280;30022;55.846;37.340;2023-03-15T00:10:03;46560.91;;;-143.51;100.00
44309;BME280;30022;55.846;37.340;2023-03-15T00:12:29;46580.66;;;-143.51;100.00
44309;BME280;30022;55.846;37.340;2023-03-15T00:14:55;46606.34;;;-143.51;100.00
44309;BME280;30022;55.846;37.340;2023-03-15T00:17:20;46594.50;;;-143.51;100.00
44309;BME280;30022;55.846;37.340;2023-03-15T00:19:47;46622.16;;;-143.51;100.00
44309;BME280;30022;55.846;37.340;2023-03-15T00:22:13;46653.75;;;-143.51;100.00
44309;BME280;30022;55.846;37.340;2023-03-15T00:24:38;46598.44;;;-143.51;100.00
44309;BME280;30022;55.846;37.340;2023-03-15T00:27:04;46657.69;;;-143.51;100.00
44309;BME280;30022;55.846;37.340;2023-03-15T00:29:30;46635.97;;;-143.51;100.00
44309;BME280;30022;55.846;37.340;2023-03-15T00:31:56;46614.25;;;-143.51;100.00
44309;BME280;30022;55.846;37.340;2023-03-15T00:34:21;46641.88;;;-143.51;100.00
44309;BME280;30022;55.846;37.340;2023-03-15T00:36:51;46649.78;;;-143.51;100.00
44309;BME280;30022;55.846;37.340;2023-03-15T00:39:21;46598.44;;;-143.51;100.00
44309;BME280;30022;55.846;37.340;2023-03-15T00:41:50;46602.41;;;-143.51;100.00
44309;BME280;30022;55.846;37.340;2023-03-15T00:44:16;46596.47;;;-143.51;100.00
44309;BME280;30022;55.846;37.340;2023-03-15T00:46:41;46622.16;;;-143.51;100.00
44309;BME280;30022;55.846;37.340;2023-03-15T00:49:07;46598.44;;;-143.51;100.00
44309;BME280;30022;55.846;37.340;2023-03-15T00:51:32;46614.25;;;-143.51;100.00
44309;BME280;30022;55.846;37.340;2023-03-15T00:53:58;46637.94;;;-143.51;100.00
44309;BME280;30022;55.846;37.340;2023-03-15T00:56:25;46610.28;;;-143.51;100.00
44309;BME280;30022;55.846;37.340;2023-03-15T00:58:51;46588.56;;;-143.51;100.00
44309;BME280;30022;55.846;37.340;2023-03-15T01:01:18;46588.56;;;-143.51;100.00
44309;BME280;30022;55.846;37.340;2023-03-15T01:03:44;46614.25;;;-143.51;100.00
44309;BME280;30022;55.846;37.340;2023-03-15T01:06:11;46602.41;;;-143.51;100.00
44309;BME280;30022;55.846;37.340;2023-03-15T01:08:37;46590.53;;;-143.51;100.00
44309;BME280;30022;55.846;37.340;2023-03-15T01:11:07;46586.59;;;-143.51;100.00
44309;BME280;30022;55.846;37.340;2023-03-15T01:13:33;46624.13;;;-143.51;100.00
44309;BME280;30022;55.846;37.340;2023-03-15T01:15:58;46616.22;;;-143.51;100.00
44309;BME280;30022;55.846;37.340;2023-03-15T01:18:24;46610.28;;;-143.51;100.00
44309;BME280;30022;55.846;37.340;2023-03-15T01:20:50;46586.59;;;-143.51;100.00
44309;BME280;30022;55.846;37.340;2023-03-15T01:23:17;46604.38;;;-143.51;100.00
44309;BME280;30022;55.846;37.340;2023-03-15T01:25:45;46598.44;;;-143.51;100.00
44309;BME280;30022;55.846;37.340;2023-03-15T01:28:11;46592.53;;;-143.51;100.00
44309;BME280;30022;55.846;37.340;2023-03-15T01:30:37;46606.34;;;-143.51;100.00
44309;BME280;30022;55.846;37.340;2023-03-15T01:33:02;46610.28;;;-143.51;100.00
44309;BME280;30022;55.846;37.340;2023-03-15T01:35:28;46606.34;;;-143.51;100.00
44309;BME280;30022;55.846;37.340;2023-03-15T01:37:54;46614.25;;;-143.51;100.00
44309;BME280;30022;55.846;37.340;2023-03-15T01:40:20;46602.41;;;-143.51;100.00
44309;BME280;30022;55.846;37.340;2023-03-15T01:48:12;46602.41;;;-143.51;100.00
44309;BME280;30022;55.846;37.340;2023-03-15T01:50:38;46618.19;;;-143.51;100.00
44309;BME280;30022;55.846;37.340;2023-03-15T01:53:04;46622.16;;;-143.51;100.00
44309;BME280;30022;55.846;37.340;2023-03-15T01:55:30;46586.59;;;-143.51;100.00
44309;BME280;30022;55.846;37.340;2023-03-15T01:58:04;46594.50;;;-143.51;100.00
44309;BME280;30022;55.846;37.340;2023-03-15T02:00:35;46610.28;;;-143.51;100.00
44309;BME280;30022;55.846;37.340;2023-03-15T02:03:08;46596.47;;;-143.51;100.00
44309;BME280;30022;55.846;37.340;2023-03-15T02:05:40;46596.47;;;-143.51;100.00
44309;BME280;30022;55.846;37.340;2023-03-15T02:08:14;46622.16;;;-143.51;100.00
44309;BME280;30022;55.846;37.340;2023-03-15T02:10:44;46616.22;;;-143.51;100.00
44309;BME280;30022;55.846;37.340;2023-03-15T02:13:12;46594.50;;;-143.51;100.00
44309;BME280;30022;55.846;37.340;2023-03-15T02:15:38;46628.06;;;-143.51;100.00
44309;BME280;30022;55.846;37.340;2023-03-15T02:18:05;46628.06;;;-143.51;100.00
44309;BME280;30022;55.846;37.340;2023-03-15T02:23:21;46626.09;;;-143.51;100.00
44309;BME280;30022;55.846;37.340;2023-03-15T02:28:14;46630.03;;;-143.51;100.00
44309;BME280;30022;55.846;37.340;2023-03-15T02:30:41;46598.44;;;-143.51;100.00
44309;BME280;30022;55.846;37.340;2023-03-15T02:33:29;46618.19;;;-143.51;100.00
44309;BME280;30022;55.846;37.340;2023-03-15T02:35:53;46622.16;;;-143.51;100.00
44309;BME280;30022;55.846;37.340;2023-03-15T02:38:19;46622.16;;;-143.51;100.00
44309;BME280;30022;55.846;37.340;2023-03-15T02:40:46;46574.75;;;-143.51;100.00
44309;BME280;30022;55.846;37.340;2023-03-15T02:43:13;46608.31;;;-143.51;100.00
44309;BME280;30022;55.846;37.340;2023-03-15T02:45:40;46586.59;;;-143.51;100.00
44309;BME280;30022;55.846;37.340;2023-03-15T02:48:05;46582.66;;;-143.51;100.00
44309;BME280;30022;55.846;37.340;2023-03-15T02:50:31;46612.28;;;-143.51;100.00
44309;BME280;30022;55.846;37.340;2023-03-15T02:52:57;46586.59;;;-143.51;100.00
44309;BME280;30022;55.846;37.340;2023-03-15T02:55:23;46612.28;;;-143.51;100.00
44309;BME280;30022;55.846;37.340;2023-03-15T02:57:48;46568.81;;;-143.51;100.00
44309;BME280;30022;55.846;37.340;2023-03-15T03:00:14;46598.44;;;-143.51;100.00
44309;BME280;30022;55.846;37.340;2023-03-15T03:02:42;46606.34;;;-143.51;100.00
44309;BME280;30022;55.846;37.340;2023-03-15T03:05:10;46622.16;;;-143.51;100.00
44309;BME280;30022;55.846;37.340;2023-03-15T03:07:36;46598.44;;;-143.51;100.00
44309;BME280;30022;55.846;37.340;2023-03-15T03:10:07;46582.66;;;-143.51;100.00
44309;BME280;30022;55.846;37.340;2023-03-15T03:12:44;46620.16;;;-143.51;100.00
44309;BME280;30022;55.846;37.340;2023-03-15T03:15:11;46600.41;;;-143.51;100.00
44309;BME280;30022;55.846;37.340;2023-03-15T03:17:37;46586.59;;;-143.51;100.00
44309;BME280;30022;55.846;37.340;2023-03-15T03:20:04;46590.53;;;-143.51;100.00
44309;BME280;30022;55.846;37.340;2023-03-15T03:22:34;46568.81;;;-143.51;100.00
44309;BME280;30022;55.846;37.340;2023-03-15T03:25:00;46582.66;;;-143.51;100.00
44309;BME280;30022;55.846;37.340;2023-03-15T03:27:27;46598.44;;;-143.51;100.00
44309;BME280;30022;55.846;37.340;2023-03-15T03:29:53;46594.50;;;-143.51;100.00
44309;BME280;30022;55.846;37.340;2023-03-15T03:32:19;46547.09;;;-143.51;100.00
44309;BME280;30022;55.846;37.340;2023-03-15T03:34:45;46582.66;;;-143.51;100.00
44309;BME280;30022;55.846;37.340;2023-03-15T03:37:15;46594.50;;;-143.51;100.00
44309;BME280;30022;55.846;37.340;2023-03-15T03:39:57;46580.66;;;-143.51;100.00
44309;BME280;30022;55.846;37.340;2023-03-15T03:42:23;46572.78;;;-143.51;100.00
44309;BME280;30022;55.846;37.340;2023-03-15T03:44:49;46555.00;;;-143.51;100.00
44309;BME280;30022;55.846;37.340;2023-03-15T03:47:15;46574.75;;;-143.51;100.00
44309;BME280;30022;55.846;37.340;2023-03-15T03:49:41;46555.00;;;-143.51;100.00
44309;BME280;30022;55.846;37.340;2023-03-15T03:52:06;46551.06;;;-143.51;100.00
44309;BME280;30022;55.846;37.340;2023-03-15T03:54:33;46533.28;;;-143.51;100.00
44309;BME280;30022;55.846;37.340;2023-03-15T03:56:59;46568.81;;;-143.51;100.00
44309;BME280;30022;55.846;37.340;2023-03-15T03:59:29;46590.53;;;-143.51;100.00
44309;BME280;30022;55.846;37.340;2023-03-15T04:02:01;46578.69;;;-143.51;100.00
44309;BME280;30022;55.846;37.340;2023-03-15T04:04:28;46606.34;;;-143.51;100.00
44309;BME280;30022;55.846;37.340;2023-03-15T04:06:53;46614.25;;;-143.51;100.00
44309;BME280;30022;55.846;37.340;2023-03-15T04:09:24;46608.31;;;-143.51;100.00
44309;BME280;30022;55.846;37.340;2023-03-15T04:11:51;46582.66;;;-143.51;100.00
44309;BME280;30022;55.846;37.340;2023-03-15T04:14:17;46582.66;;;-143.51;100.00
44309;BME280;30022;55.846;37.340;2023-03-15T04:16:45;46608.31;;;-143.51;100.00
44309;BME280;30022;55.846;37.340;2023-03-15T04:19:14;46574.75;;;-143.51;100.00
44309;BME280;30022;55.846;37.340;2023-03-15T04:21:40;46604.38;;;-143.51;100.00
44309;BME280;30022;55.846;37.340;2023-03-15T04:24:27;46596.47;;;-143.51;100.00
44309;BME280;30022;55.846;37.340;2023-03-15T04:27:11;46594.50;;;-143.51;100.00
44309;BME280;30022;55.846;37.340;2023-03-15T04:29:50;46566.84;;;-143.51;100.00
44309;BME280;30022;55.846;37.340;2023-03-15T04:32:39;46610.28;;;-143.51;100.00
44309;BME280;30022;55.846;37.340;2023-03-15T04:35:15;46600.41;;;-143.51;100.00
44309;BME280;30022;55.846;37.340;2023-03-15T04:38:06;46594.50;;;-143.51;100.00
44309;BME280;30022;55.846;37.340;2023-03-15T04:40:46;46616.22;;;-143.51;100.00
44309;BME280;30022;55.846;37.340;2023-03-15T04:43:24;46626.09;;;-143.51;100.00
44309;BME280;30022;55.846;37.340;2023-03-15T04:46:13;46576.72;;;-143.51;100.00
44309;BME280;30022;55.846;37.340;2023-03-15T04:48:52;46628.06;;;-143.51;100.00
44309;BME280;30022;55.846;37.340;2023-03-15T04:51:29;46620.16;;;-143.51;100.00
44309;BME280;30022;55.846;37.340;2023-03-15T04:54:12;46604.38;;;-143.51;100.00
44309;BME280;30022;55.846;37.340;2023-03-15T04:56:44;46606.34;;;-143.51;100.00
44309;BME280;30022;55.846;37.340;2023-03-15T04:59:22;46598.44;;;-143.51;100.00
44309;BME280;30022;55.846;37.340;2023-03-15T05:01:54;46596.47;;;-143.51;100.00
44309;BME280;30022;55.846;37.340;2023-03-15T05:04:31;46604.38;;;-143.51;100.00
44309;BME280;30022;55.846;37.340;2023-03-15T05:07:17;46574.75;;;-143.51;100.00
44309;BME280;30022;55.846;37.340;2023-03-15T05:10:06;46588.56;;;-143.51;100.00
44309;BME280;30022;55.846;37.340;2023-03-15T05:12:32;46586.59;;;-143.51;100.00
44309;BME280;30022;55.846;37.340;2023-03-15T05:15:16;46635.97;;;-143.51;100.00
44309;BME280;30022;55.846;37.340;2023-03-15T05:17:53;46606.34;;;-143.51;100.00
44309;BME280;30022;55.846;37.340;2023-03-15T05:20:46;46628.06;;;-143.51;100.00
44309;BME280;30022;55.846;37.340;2023-03-15T05:23:34;46582.66;;;-143.51;100.00
44309;BME280;30022;55.846;37.340;2023-03-15T05:26:26;46628.06;;;-143.51;100.00
44309;BME280;30022;55.846;37.340;2023-03-15T05:29:19;46626.09;;;-143.51;100.00
44309;BME280;30022;55.846;37.340;2023-03-15T05:32:02;46626.09;;;-143.51;100.00
44309;BME280;30022;55.846;37.340;2023-03-15T05:34:49;46620.16;;;-143.51;100.00
44309;BME280;30022;55.846;37.340;2023-03-15T05:37:37;46614.25;;;-143.51;100.00
44309;BME280;30022;55.846;37.340;2023-03-15T05:40:26;46608.31;;;-143.51;100.00
44309;BME280;30022;55.846;37.340;2023-03-15T05:43:15;46610.28;;;-143.51;100.00
44309;BME280;30022;55.846;37.340;2023-03-15T05:46:07;46655.72;;;-143.51;100.00
44309;BME280;30022;55.846;37.340;2023-03-15T05:48:53;46634.00;;;-143.51;100.00
44309;BME280;30022;55.846;37.340;2023-03-15T05:51:39;46639.91;;;-143.51;100.00
44309;BME280;30022;55.846;37.340;2023-03-15T05:54:10;46634.00;;;-143.51;100.00
44309;BME280;30022;55.846;37.340;2023-03-15T05:57:04;46641.88;;;-143.51;100.00
44309;BME280;30022;55.846;37.340;2023-03-15T05:59:35;46649.78;;;-143.51;100.00
44309;BME280;30022;55.846;37.340;2023-03-15T06:02:40;46630.03;;;-143.51;100.00
44309;BME280;30022;55.846;37.340;2023-03-15T06:05:19;46620.16;;;-143.51;100.00
44309;BME280;30022;55.846;37.340;2023-03-15T06:07:45;46641.88;;;-143.51;100.00
44309;BME280;30022;55.846;37.340;2023-03-15T06:10:12;46618.19;;;-143.51;100.00
44309;BME280;30022;55.846;37.340;2023-03-15T06:12:38;46651.75;;;-143.51;100.00
44309;BME280;30022;55.846;37.340;2023-03-15T06:15:04;46641.88;;;-143.51;100.00
44309;BME280;30022;55.846;37.340;2023-03-15T06:17:30;46602.41;;;-143.51;100.00
44309;BME280;30022;55.846;37.340;2023-03-15T06:19:56;46596.47;;;-143.51;100.00
44309;BME280;30022;55.846;37.340;2023-03-15T06:22:22;46594.50;;;-143.51;100.00
44309;BME280;30022;55.846;37.340;2023-03-15T06:24:53;46612.28;;;-143.51;100.00
44309;BME280;30022;55.846;37.340;2023-03-15T06:27:21;46620.16;;;-143.51;100.00
44309;BME280;30022;55.846;37.340;2023-03-15T06:29:48;46634.00;;;-143.51;100.00
44309;BME280;30022;55.846;37.340;2023-03-15T06:32:15;46630.03;;;-143.51;100.00
44309;BME280;30022;55.846;37.340;2023-03-15T06:34:41;46643.88;;;-143.51;100.00
44309;BME280;30022;55.846;37.340;2023-03-15T06:37:07;46620.16;;;-143.51;100.00
44309;BME280;30022;55.846;37.340;2023-03-15T06:39:33;46630.03;;;-143.51;100.00
44309;BME280;30022;55.846;37.340;2023-03-15T06:41:59;46610.28;;;-143.51;100.00
44309;BME280;30022;55.846;37.340;2023-03-15T06:44:27;46635.97;;;-143.51;100.00
44309;BME280;30022;55.846;37.340;2023-03-15T06:46:57;46614.25;;;-143.51;100.00
44309;BME280;30022;55.846;37.340;2023-03-15T06:49:23;46620.16;;;-143.51;100.00
44309;BME280;30022;55.846;37.340;2023-03-15T06:51:49;46643.88;;;-143.51;100.00
44309;BME280;30022;55.846;37.340;2023-03-15T06:54:14;46641.88;;;-143.51;100.00
44309;BME280;30022;55.846;37.340;2023-03-15T06:56:40;46634.00;;;-143.51;100.00
44309;BME280;30022;55.846;37.340;2023-03-15T06:59:06;46624.13;;;-143.51;100.00
44309;BME280;30022;55.846;37.340;2023-03-15T07:01:32;46622.16;;;-143.51;100.00
44309;BME280;30022;55.846;37.340;2023-03-15T07:03:57;46639.91;;;-143.51;100.00
44309;BME280;30022;55.846;37.340;2023-03-15T07:06:23;46618.19;;;-143.51;100.00
44309;BME280;30022;55.846;37.340;2023-03-15T07:08:49;46596.47;;;-143.51;100.00
44309;BME280;30022;55.846;37.340;2023-03-15T07:11:14;46610.28;;;-143.51;100.00
44309;BME280;30022;55.846;37.340;2023-03-15T07:13:40;46612.28;;;-143.51;100.00
44309;BME280;30022;55.846;37.340;2023-03-15T07:16:05;46624.13;;;-143.51;100.00
44309;BME280;30022;55.846;37.340;2023-03-15T07:18:31;46639.91;;;-143.51;100.00
44309;BME280;30022;55.846;37.340;2023-03-15T07:20:59;46659.66;;;-143.51;100.00
44309;BME280;30022;55.846;37.340;2023-03-15T07:23:25;46590.53;;;-143.51;100.00
44309;BME280;30022;55.846;37.340;2023-03-15T07:25:50;46610.28;;;-143.51;100.00
44309;BME280;30022;55.846;37.340;2023-03-15T07:28:16;46641.88;;;-143.51;100.00
44309;BME280;30022;55.846;37.340;2023-03-15T07:30:42;46608.31;;;-143.51;100.00
44309;BME280;30022;55.846;37.340;2023-03-15T07:33:16;46643.88;;;-143.51;100.00
44309;BME280;30022;55.846;37.340;2023-03-15T07:35:41;46622.16;;;-143.51;100.00
44309;BME280;30022;55.846;37.340;2023-03-15T07:38:07;46628.06;;;-143.51;100.00
44309;BME280;30022;55.846;37.340;2023-03-15T07:40:32;46635.97;;;-143.51;100.00
44309;BME280;30022;55.846;37.340;2023-03-15T07:42:58;46645.84;;;-143.51;100.00
44309;BME280;30022;55.846;37.340;2023-03-15T07:45:24;46641.88;;;-143.51;100.00
44309;BME280;30022;55.846;37.340;2023-03-15T07:47:49;46651.75;;;-143.51;100.00
44309;BME280;30022;55.846;37.340;2023-03-15T07:50:15;46635.97;;;-143.51;100.00
44309;BME280;30022;55.846;37.340;2023-03-15T07:52:41;46641.88;;;-143.51;100.00
44309;BME280;30022;55.846;37.340;2023-03-15T07:55:07;46618.19;;;-143.51;100.00
44309;BME280;30022;55.846;37.340;2023-03-15T07:57:33;46655.72;;;-143.51;100.00
44309;BME280;30022;55.846;37.340;2023-03-15T07:59:58;46614.25;;;-143.51;100.00
44309;BME280;30022;55.846;37.340;2023-03-15T08:02:24;46630.03;;;-143.51;100.00
44309;BME280;30022;55.846;37.340;2023-03-15T08:04:49;46639.91;;;-143.51;100.00
44309;BME280;30022;55.846;37.340;2023-03-15T08:07:15;46635.97;;;-143.51;100.00
44309;BME280;30022;55.846;37.340;2023-03-15T08:09:41;46630.03;;;-143.51;100.00
44309;BME280;30022;55.846;37.340;2023-03-15T08:12:08;46608.31;;;-143.51;100.00
44309;BME280;30022;55.846;37.340;2023-03-15T08:14:33;46634.00;;;-143.51;100.00
44309;BME280;30022;55.846;37.340;2023-03-15T08:16:59;46630.03;;;-143.51;100.00
44309;BME280;30022;55.846;37.340;2023-03-15T08:19:24;46647.81;;;-143.51;100.00
44309;BME280;30022;55.846;37.340;2023-03-15T08:21:50;46651.75;;;-143.51;100.00
44309;BME280;30022;55.846;37.340;2023-03-15T08:24:18;46618.19;;;-143.51;100.00
44309;BME280;30022;55.846;37.340;2023-03-15T08:26:43;46637.94;;;-143.51;100.00
44309;BME280;30022;55.846;37.340;2023-03-15T08:29:09;46630.03;;;-143.51;100.00
44309;BME280;30022;55.846;37.340;2023-03-15T08:31:43;46661.63;;;-143.51;100.00
44309;BME280;30022;55.846;37.340;2023-03-15T08:34:09;46651.75;;;-143.51;100.00
44309;BME280;30022;55.846;37.340;2023-03-15T08:36:36;46634.00;;;-143.51;100.00
44309;BME280;30022;55.846;37.340;2023-03-15T08:39:02;46643.88;;;-143.51;100.00
44309;BME280;30022;55.846;37.340;2023-03-15T08:41:29;46641.88;;;-143.51;100.00
44309;BME280;30022;55.846;37.340;2023-03-15T08:43:55;46612.28;;;-143.51;100.00
44309;BME280;30022;55.846;37.340;2023-03-15T08:46:21;46630.03;;;-143.51;100.00
44309;BME280;30022;55.846;37.340;2023-03-15T08:48:46;46622.16;;;-143.51;100.00
44309;BME280;30022;55.846;37.340;2023-03-15T08:51:12;46632.03;;;-143.51;100.00
44309;BME280;30022;55.846;37.340;2023-03-15T08:53:41;46630.03;;;-143.51;100.00
44309;BME280;30022;55.846;37.340;2023-03-15T08:56:07;46657.69;;;-143.51;100.00
44309;BME280;30022;55.846;37.340;2023-03-15T08:58:33;46637.94;;;-143.51;100.00
44309;BME280;30022;55.846;37.340;2023-03-15T09:01:00;46639.91;;;-143.51;100.00
44309;BME280;30022;55.846;37.340;2023-03-15T09:03:26;46608.31;;;-143.51;100.00
44309;BME280;30022;55.846;37.340;2023-03-15T09:05:55;46645.84;;;-143.51;100.00
44309;BME280;30022;55.846;37.340;2023-03-15T09:08:24;46655.72;;;-143.51;100.00
44309;BME280;30022;55.846;37.340;2023-03-15T09:10:56;46634.00;;;-143.51;100.00
44309;BME280;30022;55.846;37.340;2023-03-15T09:13:22;46608.31;;;-143.51;100.00
44309;BME280;30022;55.846;37.340;2023-03-15T09:15:49;46626.09;;;-143.51;100.00
44309;BME280;30022;55.846;37.340;2023-03-15T09:18:15;46630.03;;;-143.51;100.00
44309;BME280;30022;55.846;37.340;2023-03-15T09:20:41;46661.63;;;-143.51;100.00
44309;BME280;30022;55.846;37.340;2023-03-15T09:23:06;46635.97;;;-143.51;100.00
44309;BME280;30022;55.846;37.340;2023-03-15T09:25:32;46622.16;;;-143.51;100.00
44309;BME280;30022;55.846;37.340;2023-03-15T09:27:58;46618.19;;;-143.51;100.00
44309;BME280;30022;55.846;37.340;2023-03-15T09:30:23;46610.28;;;-143.51;100.00
44309;BME280;30022;55.846;37.340;2023-03-15T09:32:49;46639.91;;;-143.51;100.00
44309;BME280;30022;55.846;37.340;2023-03-15T09:35:16;46624.13;;;-143.51;100.00
44309;BME280;30022;55.846;37.340;2023-03-15T09:37:42;46632.03;;;-143.51;100.00
44309;BME280;30022;55.846;37.340;2023-03-15T09:40:15;46641.88;;;-143.51;100.00
44309;BME280;30022;55.846;37.340;2023-03-15T09:42:52;46657.69;;;-143.51;100.00
44309;BME280;30022;55.846;37.340;2023-03-15T09:51:30;46637.94;;;-143.51;100.00
44309;BME280;30022;55.846;37.340;2023-03-15T09:56:20;46578.69;;;-143.51;100.00
44309;BME280;30022;55.846;37.340;2023-03-15T09:58:46;46645.84;;;-143.51;100.00
44309;BME280;30022;55.846;37.340;2023-03-15T10:01:13;46647.81;;;-143.51;100.00
44309;BME280;30022;55.846;37.340;2023-03-15T10:04:26;46649.78;;;-143.51;100.00
44309;BME280;30022;55.846;37.340;2023-03-15T10:06:56;46618.19;;;-143.51;100.00
44309;BME280;30022;55.846;37.340;2023-03-15T10:09:24;46616.22;;;-143.51;100.00
44309;BME280;30022;55.846;37.340;2023-03-15T10:14:41;46635.97;;;-143.51;100.00
44309;BME280;30022;55.846;37.340;2023-03-15T10:17:13;46590.53;;;-143.51;100.00
44309;BME280;30022;55.846;37.340;2023-03-15T10:24:55;46610.28;;;-143.51;100.00
44309;BME280;30022;55.846;37.340;2023-03-15T10:27:44;46580.66;;;-143.51;100.00
44309;BME280;30022;55.846;37.340;2023-03-15T10:30:22;46586.59;;;-143.51;100.00
44309;BME280;30022;55.846;37.340;2023-03-15T10:32:51;46588.56;;;-143.51;100.00
44309;BME280;30022;55.846;37.340;2023-03-15T10:35:18;46555.00;;;-143.51;100.00
44309;BME280;30022;55.846;37.340;2023-03-15T10:37:45;46553.03;;;-143.51;100.00
44309;BME280;30022;55.846;37.340;2023-03-15T10:40:12;46537.22;;;-143.51;100.00
44309;BME280;30022;55.846;37.340;2023-03-15T10:42:41;46610.28;;;-143.51;100.00
44309;BME280;30022;55.846;37.340;2023-03-15T10:45:21;46598.44;;;-143.51;100.00
44309;BME280;30022;55.846;37.340;2023-03-15T10:47:47;46580.66;;;-143.51;100.00
44309;BME280;30022;55.846;37.340;2023-03-15T10:50:17;46535.25;;;-143.51;100.00
44309;BME280;30022;55.846;37.340;2023-03-15T10:52:49;46580.66;;;-143.51;100.00
44309;BME280;30022;55.846;37.340;2023-03-15T10:55:19;46600.41;;;-143.51;100.00
44309;BME280;30022;55.846;37.340;2023-03-15T10:57:51;46592.53;;;-143.51;100.00
44309;BME280;30022;55.846;37.340;2023-03-15T11:06:27;46582.66;;;-143.51;100.00
44309;BME280;30022;55.846;37.340;2023-03-15T11:08:53;46560.91;;;-143.51;100.00
44309;BME280;30022;55.846;37.340;2023-03-15T11:11:47;46616.22;;;-143.51;100.00
44309;BME280;30022;55.846;37.340;2023-03-15T11:14:13;46590.53;;;-143.51;100.00
44309;BME280;30022;55.846;37.340;2023-03-15T11:16:39;46556.97;;;-143.51;100.00
44309;BME280;30022;55.846;37.340;2023-03-15T11:19:10;46584.63;;;-143.51;100.00
44309;BME280;30022;55.846;37.340;2023-03-15T11:21:36;46572.78;;;-143.51;100.00
44309;BME280;30022;55.846;37.340;2023-03-15T11:24:03;46564.88;;;-143.51;100.00
44309;BME280;30022;55.846;37.340;2023-03-15T11:26:37;46572.78;;;-143.51;100.00
44309;BME280;30022;55.846;37.340;2023-03-15T11:29:04;46533.28;;;-143.51;100.00
44309;BME280;30022;55.846;37.340;2023-03-15T11:31:43;46568.81;;;-143.51;100.00
44309;BME280;30022;55.846;37.340;2023-03-15T11:36:46;46602.41;;;-143.51;100.00
44309;BME280;30022;55.846;37.340;2023-03-15T11:39:23;46598.44;;;-143.51;100.00
44309;BME280;30022;55.846;37.340;2023-03-15T11:42:02;46614.25;;;-143.51;100.00
44309;BME280;30022;55.846;37.340;2023-03-15T11:44:36;46584.63;;;-143.51;100.00
44309;BME280;30022;55.846;37.340;2023-03-15T11:49:45;46606.34;;;-143.51;100.00
44309;BME280;30022;55.846;37.340;2023-03-15T11:52:14;46614.25;;;-143.51;100.00
44309;BME280;30022;55.846;37.340;2023-03-15T11:54:40;46653.75;;;-143.51;100.00
44309;BME280;30022;55.846;37.340;2023-03-15T11:57:07;46566.84;;;-143.51;100.00
44309;BME280;30022;55.846;37.340;2023-03-15T11:59:51;46624.13;;;-143.51;100.00
44309;BME280;30022;55.846;37.340;2023-03-15T12:04:43;46622.16;;;-143.51;100.00
44309;BME280;30022;55.846;37.340;2023-03-15T12:09:48;46596.47;;;-143.51;100.00
44309;BME280;30022;55.846;37.340;2023-03-15T12:14:59;46602.41;;;-143.51;100.00
44309;BME280;30022;55.846;37.340;2023-03-15T12:19:57;46622.16;;;-143.51;100.00
44309;BME280;30022;55.846;37.340;2023-03-15T12:22:23;46618.19;;;-143.51;100.00
44309;BME280;30022;55.846;37.340;2023-03-15T12:24:51;46582.66;;;-143.51;100.00
44309;BME280;30022;55.846;37.340;2023-03-15T12:27:17;46600.41;;;-143.51;100.00
44309;BME280;30022;55.846;37.340;2023-03-15T12:29:44;46549.06;;;-143.51;100.00
44309;BME280;30022;55.846;37.340;2023-03-15T12:32:16;46588.56;;;-143.51;100.00
44309;BME280;30022;55.846;37.340;2023-03-15T12:34:50;46553.03;;;-143.51;100.00
44309;BME280;30022;55.846;37.340;2023-03-15T12:47:43;46596.47;;;-143.51;100.00
44309;BME280;30022;55.846;37.340;2023-03-15T12:52:54;46622.16;;;-143.51;100.00
44309;BME280;30022;55.846;37.340;2023-03-15T12:55:23;46578.69;;;-143.51;100.00
44309;BME280;30022;55.846;37.340;2023-03-15T12:57:52;46584.63;;;-143.51;100.00
44309;BME280;30022;55.846;37.340;2023-03-15T13:00:26;46606.34;;;-143.51;100.00
44309;BME280;30022;55.846;37.340;2023-03-15T13:05:51;46598.44;;;-143.51;100.00
44309;BME280;30022;55.846;37.340;2023-03-15T13:08:22;46630.03;;;-143.51;100.00
44309;BME280;30022;55.846;37.340;2023-03-15T13:13:22;46620.16;;;-143.51;100.00
44309;BME280;30022;55.846;37.340;2023-03-15T13:18:31;46558.94;;;-143.51;100.00
44309;BME280;30022;55.846;37.340;2023-03-15T13:23:43;46568.81;;;-143.51;100.00
44309;BME280;30022;55.846;37.340;2023-03-15T13:26:34;46578.69;;;-143.51;100.00
44309;BME280;30022;55.846;37.340;2023-03-15T13:29:09;46576.72;;;-143.51;100.00
44309;BME280;30022;55.846;37.340;2023-03-15T13:31:38;46562.91;;;-143.51;100.00
44309;BME280;30022;55.846;37.340;2023-03-15T13:34:11;46529.31;;;-143.51;100.00
44309;BME280;30022;55.846;37.340;2023-03-15T13:36:42;46551.06;;;-143.51;100.00
44309;BME280;30022;55.846;37.340;2023-03-15T13:39:13;46586.59;;;-143.51;100.00
44309;BME280;30022;55.846;37.340;2023-03-15T13:41:40;46555.00;;;-143.51;100.00
44309;BME280;30022;55.846;37.340;2023-03-15T13:44:13;46545.13;;;-143.51;100.00
44309;BME280;30022;55.846;37.340;2023-03-15T13:46:40;46527.34;;;-143.51;100.00